sensor_id;sensor_type;location;lat;lon;timestamp;P1;durP1;ratioP1;P2;durP2;ratioP2
17850;SDS011;9051;51.548;14.348;2022-10-16T00:00:04;17.40;;;10.20;;
17850;SDS011;9051;51.548;14.348;2022-10-16T00:02:37;10.07;;;9.10;;
17850;SDS011;9051;51.548;14.348;2022-10-16T00:05:11;10.47;;;9.47;;
17850;SDS011;9051;51.548;14.348;2022-10-16T00:07:43;10.47;;;8.77;;
17850;SDS011;9051;51.548;14.348;2022-10-16T00:10:15;10.03;;;9.03;;
17850;SDS011;9051;51.548;14.348;2022-10-16T00:12:47;10.20;;;9.17;;
17850;SDS011;9051;51.548;14.348;2022-10-16T00:15:20;13.70;;;9.73;;
17850;SDS011;9051;51.548;14.348;2022-10-16T00:17:56;8.70;;;7.90;;
17850;SDS011;9051;51.548;14.348;2022-10-16T00:20:29;10.37;;;9.20;;
17850;SDS011;9051;51.548;14.348;2022-10-16T00:23:03;10.27;;;9.27;;
17850;SDS011;9051;51.548;14.348;2022-10-16T00:25:35;9.37;;;8.47;;
17850;SDS011;9051;51.548;14.348;2022-10-16T00:28:07;9.53;;;8.53;;
17850;SDS011;9051;51.548;14.348;2022-10-16T00:30:41;10.00;;;8.60;;
17850;SDS011;9051;51.548;14.348;2022-10-16T00:33:13;10.73;;;9.40;;
17850;SDS011;9051;51.548;14.348;2022-10-16T00:35:47;9.83;;;8.83;;
17850;SDS011;9051;51.548;14.348;2022-10-16T00:38:20;10.10;;;9.07;;
17850;SDS011;9051;51.548;14.348;2022-10-16T00:40:52;9.77;;;8.77;;
17850;SDS011;9051;51.548;14.348;2022-10-16T00:43:37;10.33;;;9.10;;
17850;SDS011;9051;51.548;14.348;2022-10-16T00:46:13;10.10;;;9.10;;
17850;SDS011;9051;51.548;14.348;2022-10-16T00:48:51;10.00;;;9.00;;
17850;SDS011;9051;51.548;14.348;2022-10-16T00:51:28;10.00;;;9.00;;
17850;SDS011;9051;51.548;14.348;2022-10-16T00:54:04;9.80;;;8.90;;
17850;SDS011;9051;51.548;14.348;2022-10-16T00:56:40;9.63;;;8.63;;
17850;SDS011;9051;51.548;14.348;2022-10-16T00:59:15;9.80;;;8.80;;
17850;SDS011;9051;51.548;14.348;2022-10-16T01:01:49;12.27;;;9.30;;
17850;SDS011;9051;51.548;14.348;2022-10-16T01:04:22;9.53;;;8.63;;
17850;SDS011;9051;51.548;14.348;2022-10-16T01:07:01;10.37;;;9.23;;
17850;SDS011;9051;51.548;14.348;2022-10-16T01:09:46;10.13;;;9.07;;
17850;SDS011;9051;51.548;14.348;2022-10-16T01:12:27;9.17;;;8.27;;
17850;SDS011;9051;51.548;14.348;2022-10-16T01:15:08;9.57;;;8.60;;
17850;SDS011;9051;51.548;14.348;2022-10-16T01:17:47;9.83;;;8.83;;
17850;SDS011;9051;51.548;14.348;2022-10-16T01:20:26;10.00;;;9.10;;
17850;SDS011;9051;51.548;14.348;2022-10-16T01:23:06;9.87;;;8.87;;
17850;SDS011;9051;51.548;14.348;2022-10-16T01:25:54;9.67;;;8.67;;
17850;SDS011;9051;51.548;14.348;2022-10-16T01:28:44;9.80;;;8.80;;
17850;SDS011;9051;51.548;14.348;2022-10-16T01:31:23;9.87;;;8.87;;
17850;SDS011;9051;51.548;14.348;2022-10-16T01:34:00;10.30;;;9.30;;
17850;SDS011;9051;51.548;14.348;2022-10-16T01:36:35;10.27;;;9.07;;
17850;SDS011;9051;51.548;14.348;2022-10-16T01:39:11;10.07;;;9.07;;
17850;SDS011;9051;51.548;14.348;2022-10-16T01:41:44;9.50;;;8.50;;
17850;SDS011;9051;51.548;14.348;2022-10-16T01:44:22;10.47;;;9.47;;
17850;SDS011;9051;51.548;14.348;2022-10-16T01:46:57;9.47;;;8.47;;
17850;SDS011;9051;51.548;14.348;2022-10-16T01:49:31;10.07;;;8.60;;
17850;SDS011;9051;51.548;14.348;2022-10-16T01:52:07;10.30;;;9.30;;
17850;SDS011;9051;51.548;14.348;2022-10-16T01:54:43;9.77;;;8.87;;
17850;SDS011;9051;51.548;14.348;2022-10-16T01:57:18;10.03;;;9.03;;
17850;SDS011;9051;51.548;14.348;2022-10-16T01:59:56;9.90;;;8.90;;
17850;SDS011;9051;51.548;14.348;2022-10-16T02:02:43;9.57;;;8.67;;
17850;SDS011;9051;51.548;14.348;2022-10-16T02:05:20;10.57;;;9.47;;
17850;SDS011;9051;51.548;14.348;2022-10-16T02:07:54;11.90;;;9.33;;
17850;SDS011;9051;51.548;14.348;2022-10-16T02:10:26;10.43;;;9.33;;
17850;SDS011;9051;51.548;14.348;2022-10-16T02:13:02;10.23;;;8.80;;
17850;SDS011;9051;51.548;14.348;2022-10-16T02:15:39;10.47;;;9.07;;
17850;SDS011;9051;51.548;14.348;2022-10-16T02:18:11;9.90;;;8.90;;
17850;SDS011;9051;51.548;14.348;2022-10-16T02:20:44;10.27;;;9.10;;
17850;SDS011;9051;51.548;14.348;2022-10-16T02:23:32;10.13;;;8.97;;
17850;SDS011;9051;51.548;14.348;2022-10-16T02:26:09;10.10;;;9.20;;
17850;SDS011;9051;51.548;14.348;2022-10-16T02:28:46;11.27;;;8.90;;
17850;SDS011;9051;51.548;14.348;2022-10-16T02:31:27;10.40;;;9.23;;
17850;SDS011;9051;51.548;14.348;2022-10-16T02:34:00;10.53;;;9.37;;
17850;SDS011;9051;51.548;14.348;2022-10-16T02:36:35;11.60;;;9.07;;
17850;SDS011;9051;51.548;14.348;2022-10-16T02:39:07;10.07;;;9.07;;
17850;SDS011;9051;51.548;14.348;2022-10-16T02:41:40;10.47;;;9.03;;
17850;SDS011;9051;51.548;14.348;2022-10-16T02:44:13;10.77;;;9.50;;
17850;SDS011;9051;51.548;14.348;2022-10-16T02:46:46;10.47;;;9.33;;
17850;SDS011;9051;51.548;14.348;2022-10-16T02:49:18;10.60;;;9.60;;
17850;SDS011;9051;51.548;14.348;2022-10-16T02:51:50;11.33;;;9.47;;
17850;SDS011;9051;51.548;14.348;2022-10-16T02:54:22;10.13;;;9.13;;
17850;SDS011;9051;51.548;14.348;2022-10-16T02:56:54;11.17;;;10.03;;
17850;SDS011;9051;51.548;14.348;2022-10-16T02:59:28;10.33;;;9.23;;
17850;SDS011;9051;51.548;14.348;2022-10-16T03:02:01;11.37;;;10.27;;
17850;SDS011;9051;51.548;14.348;2022-10-16T03:04:33;11.43;;;10.23;;
17850;SDS011;9051;51.548;14.348;2022-10-16T03:07:05;11.77;;;10.23;;
17850;SDS011;9051;51.548;14.348;2022-10-16T03:09:37;12.13;;;10.20;;
17850;SDS011;9051;51.548;14.348;2022-10-16T03:12:09;11.30;;;10.20;;
17850;SDS011;9051;51.548;14.348;2022-10-16T03:14:42;11.40;;;10.20;;
17850;SDS011;9051;51.548;14.348;2022-10-16T03:17:15;11.63;;;10.50;;
17850;SDS011;9051;51.548;14.348;2022-10-16T03:19:47;12.43;;;10.07;;
17850;SDS011;9051;51.548;14.348;2022-10-16T03:22:19;11.47;;;10.37;;
17850;SDS011;9051;51.548;14.348;2022-10-16T03:24:51;11.07;;;9.90;;
17850;SDS011;9051;51.548;14.348;2022-10-16T03:27:23;12.13;;;10.83;;
17850;SDS011;9051;51.548;14.348;2022-10-16T03:29:55;11.07;;;9.97;;
17850;SDS011;9051;51.548;14.348;2022-10-16T03:32:28;10.90;;;9.90;;
17850;SDS011;9051;51.548;14.348;2022-10-16T03:35:00;10.27;;;9.37;;
17850;SDS011;9051;51.548;14.348;2022-10-16T03:37:32;11.23;;;10.13;;
17850;SDS011;9051;51.548;14.348;2022-10-16T03:40:04;11.40;;;10.33;;
17850;SDS011;9051;51.548;14.348;2022-10-16T03:42:37;10.37;;;9.47;;
17850;SDS011;9051;51.548;14.348;2022-10-16T03:45:09;10.97;;;9.97;;
17850;SDS011;9051;51.548;14.348;2022-10-16T03:47:43;10.37;;;9.37;;
17850;SDS011;9051;51.548;14.348;2022-10-16T03:50:15;10.63;;;9.73;;
17850;SDS011;9051;51.548;14.348;2022-10-16T03:52:47;11.07;;;9.97;;
17850;SDS011;9051;51.548;14.348;2022-10-16T03:55:19;11.63;;;10.53;;
17850;SDS011;9051;51.548;14.348;2022-10-16T03:57:51;10.60;;;9.57;;
17850;SDS011;9051;51.548;14.348;2022-10-16T04:00:23;11.13;;;9.87;;
17850;SDS011;9051;51.548;14.348;2022-10-16T04:02:56;11.03;;;9.97;;
17850;SDS011;9051;51.548;14.348;2022-10-16T04:05:28;10.67;;;9.67;;
17850;SDS011;9051;51.548;14.348;2022-10-16T04:08:00;11.17;;;10.03;;
17850;SDS011;9051;51.548;14.348;2022-10-16T04:10:32;11.83;;;10.67;;
17850;SDS011;9051;51.548;14.348;2022-10-16T04:13:04;11.83;;;10.73;;
17850;SDS011;9051;51.548;14.348;2022-10-16T04:15:36;11.70;;;10.50;;
17850;SDS011;9051;51.548;14.348;2022-10-16T04:18:10;10.83;;;9.83;;
17850;SDS011;9051;51.548;14.348;2022-10-16T04:20:41;11.23;;;10.13;;
17850;SDS011;9051;51.548;14.348;2022-10-16T04:23:13;11.30;;;10.07;;
17850;SDS011;9051;51.548;14.348;2022-10-16T04:25:45;10.83;;;9.73;;
17850;SDS011;9051;51.548;14.348;2022-10-16T04:28:17;14.33;;;10.83;;
17850;SDS011;9051;51.548;14.348;2022-10-16T04:30:49;10.93;;;9.83;;
17850;SDS011;9051;51.548;14.348;2022-10-16T04:33:22;11.00;;;10.00;;
17850;SDS011;9051;51.548;14.348;2022-10-16T04:35:57;11.40;;;10.33;;
17850;SDS011;9051;51.548;14.348;2022-10-16T04:38:30;11.27;;;10.17;;
17850;SDS011;9051;51.548;14.348;2022-10-16T04:41:02;11.43;;;10.13;;
17850;SDS011;9051;51.548;14.348;2022-10-16T04:43:34;11.00;;;9.90;;
17850;SDS011;9051;51.548;14.348;2022-10-16T04:46:06;10.87;;;9.87;;
17850;SDS011;9051;51.548;14.348;2022-10-16T04:48:43;10.67;;;9.67;;
17850;SDS011;9051;51.548;14.348;2022-10-16T04:51:17;9.50;;;8.60;;
17850;SDS011;9051;51.548;14.348;2022-10-16T04:53:49;14.33;;;9.97;;
17850;SDS011;9051;51.548;14.348;2022-10-16T04:56:21;12.23;;;9.73;;
17850;SDS011;9051;51.548;14.348;2022-10-16T04:58:53;10.23;;;9.33;;
17850;SDS011;9051;51.548;14.348;2022-10-16T05:01:25;11.53;;;10.43;;
17850;SDS011;9051;51.548;14.348;2022-10-16T05:03:58;10.47;;;9.43;;
17850;SDS011;9051;51.548;14.348;2022-10-16T05:06:30;10.27;;;9.37;;
17850;SDS011;9051;51.548;14.348;2022-10-16T05:09:02;10.30;;;9.30;;
17850;SDS011;9051;51.548;14.348;2022-10-16T05:11:34;10.77;;;9.67;;
17850;SDS011;9051;51.548;14.348;2022-10-16T05:14:06;11.03;;;9.97;;
17850;SDS011;9051;51.548;14.348;2022-10-16T05:16:38;10.07;;;9.07;;
17850;SDS011;9051;51.548;14.348;2022-10-16T05:19:11;13.73;;;10.27;;
17850;SDS011;9051;51.548;14.348;2022-10-16T05:21:43;12.00;;;10.60;;
17850;SDS011;9051;51.548;14.348;2022-10-16T05:24:16;10.87;;;9.77;;
17850;SDS011;9051;51.548;14.348;2022-10-16T05:26:49;12.20;;;10.03;;
17850;SDS011;9051;51.548;14.348;2022-10-16T05:29:22;11.30;;;9.90;;
17850;SDS011;9051;51.548;14.348;2022-10-16T05:31:54;10.83;;;9.83;;
17850;SDS011;9051;51.548;14.348;2022-10-16T05:34:27;11.30;;;10.10;;
17850;SDS011;9051;51.548;14.348;2022-10-16T05:36:59;11.20;;;10.10;;
17850;SDS011;9051;51.548;14.348;2022-10-16T05:39:31;11.17;;;10.07;;
17850;SDS011;9051;51.548;14.348;2022-10-16T05:42:03;11.37;;;10.20;;
17850;SDS011;9051;51.548;14.348;2022-10-16T05:44:35;11.57;;;10.47;;
17850;SDS011;9051;51.548;14.348;2022-10-16T05:47:07;11.27;;;9.77;;
17850;SDS011;9051;51.548;14.348;2022-10-16T05:49:42;11.70;;;10.07;;
17850;SDS011;9051;51.548;14.348;2022-10-16T05:52:14;10.97;;;9.87;;
17850;SDS011;9051;51.548;14.348;2022-10-16T05:54:46;10.93;;;9.77;;
17850;SDS011;9051;51.548;14.348;2022-10-16T05:57:18;11.27;;;10.17;;
17850;SDS011;9051;51.548;14.348;2022-10-16T05:59:49;11.23;;;10.13;;
17850;SDS011;9051;51.548;14.348;2022-10-16T06:02:21;11.17;;;10.07;;
17850;SDS011;9051;51.548;14.348;2022-10-16T06:04:55;11.60;;;10.50;;
17850;SDS011;9051;51.548;14.348;2022-10-16T06:07:27;11.13;;;10.03;;
17850;SDS011;9051;51.548;14.348;2022-10-16T06:09:59;10.77;;;9.67;;
17850;SDS011;9051;51.548;14.348;2022-10-16T06:12:31;11.53;;;10.43;;
17850;SDS011;9051;51.548;14.348;2022-10-16T06:15:03;11.40;;;10.30;;
17850;SDS011;9051;51.548;14.348;2022-10-16T06:17:36;10.93;;;9.93;;
17850;SDS011;9051;51.548;14.348;2022-10-16T06:20:09;11.20;;;10.10;;
17850;SDS011;9051;51.548;14.348;2022-10-16T06:22:41;11.30;;;10.20;;
17850;SDS011;9051;51.548;14.348;2022-10-16T06:25:14;11.50;;;10.43;;
17850;SDS011;9051;51.548;14.348;2022-10-16T06:27:46;10.63;;;9.63;;
17850;SDS011;9051;51.548;14.348;2022-10-16T06:30:19;11.00;;;9.93;;
17850;SDS011;9051;51.548;14.348;2022-10-16T06:32:51;11.97;;;10.77;;
17850;SDS011;9051;51.548;14.348;2022-10-16T06:35:24;10.80;;;9.70;;
17850;SDS011;9051;51.548;14.348;2022-10-16T06:37:56;10.93;;;9.90;;
17850;SDS011;9051;51.548;14.348;2022-10-16T06:40:28;11.00;;;10.00;;
17850;SDS011;9051;51.548;14.348;2022-10-16T06:43:00;11.23;;;10.23;;
17850;SDS011;9051;51.548;14.348;2022-10-16T06:45:32;11.00;;;9.87;;
17850;SDS011;9051;51.548;14.348;2022-10-16T06:48:04;10.93;;;9.93;;
17850;SDS011;9051;51.548;14.348;2022-10-16T06:50:37;10.07;;;9.17;;
17850;SDS011;9051;51.548;14.348;2022-10-16T06:53:09;10.43;;;9.43;;
17850;SDS011;9051;51.548;14.348;2022-10-16T06:55:41;10.90;;;9.90;;
17850;SDS011;9051;51.548;14.348;2022-10-16T06:58:13;10.47;;;9.57;;
17850;SDS011;9051;51.548;14.348;2022-10-16T07:00:45;10.97;;;9.87;;
17850;SDS011;9051;51.548;14.348;2022-10-16T07:03:17;9.83;;;8.93;;
17850;SDS011;9051;51.548;14.348;2022-10-16T07:05:50;9.43;;;8.53;;
17850;SDS011;9051;51.548;14.348;2022-10-16T07:08:22;9.70;;;8.83;;
17850;SDS011;9051;51.548;14.348;2022-10-16T07:10:57;10.60;;;9.60;;
17850;SDS011;9051;51.548;14.348;2022-10-16T07:13:32;10.67;;;9.67;;
17850;SDS011;9051;51.548;14.348;2022-10-16T07:16:06;9.83;;;9.00;;
17850;SDS011;9051;51.548;14.348;2022-10-16T07:18:39;10.50;;;9.50;;
17850;SDS011;9051;51.548;14.348;2022-10-16T07:21:14;10.13;;;9.23;;
17850;SDS011;9051;51.548;14.348;2022-10-16T07:23:49;10.40;;;9.40;;
17850;SDS011;9051;51.548;14.348;2022-10-16T07:26:21;10.50;;;9.60;;
17850;SDS011;9051;51.548;14.348;2022-10-16T07:28:54;10.73;;;9.10;;
17850;SDS011;9051;51.548;14.348;2022-10-16T07:31:26;9.83;;;8.93;;
17850;SDS011;9051;51.548;14.348;2022-10-16T07:33:58;10.20;;;9.20;;
17850;SDS011;9051;51.548;14.348;2022-10-16T07:36:32;9.97;;;8.90;;
17850;SDS011;9051;51.548;14.348;2022-10-16T07:39:04;10.07;;;9.07;;
17850;SDS011;9051;51.548;14.348;2022-10-16T07:41:40;10.57;;;9.57;;
17850;SDS011;9051;51.548;14.348;2022-10-16T07:44:12;10.03;;;9.17;;
17850;SDS011;9051;51.548;14.348;2022-10-16T07:46:44;10.83;;;9.73;;
17850;SDS011;9051;51.548;14.348;2022-10-16T07:49:15;11.10;;;9.40;;
17850;SDS011;9051;51.548;14.348;2022-10-16T07:51:52;9.40;;;8.60;;
17850;SDS011;9051;51.548;14.348;2022-10-16T07:54:24;9.43;;;8.47;;
17850;SDS011;9051;51.548;14.348;2022-10-16T07:56:56;9.33;;;8.33;;
17850;SDS011;9051;51.548;14.348;2022-10-16T07:59:29;9.33;;;8.43;;
17850;SDS011;9051;51.548;14.348;2022-10-16T08:02:01;8.80;;;7.93;;
17850;SDS011;9051;51.548;14.348;2022-10-16T08:04:33;8.27;;;7.47;;
17850;SDS011;9051;51.548;14.348;2022-10-16T08:07:07;7.37;;;6.77;;
17850;SDS011;9051;51.548;14.348;2022-10-16T08:09:39;9.57;;;6.70;;
17850;SDS011;9051;51.548;14.348;2022-10-16T08:12:11;7.40;;;6.77;;
17850;SDS011;9051;51.548;14.348;2022-10-16T08:14:43;7.23;;;6.63;;
17850;SDS011;9051;51.548;14.348;2022-10-16T08:17:15;7.23;;;6.63;;
17850;SDS011;9051;51.548;14.348;2022-10-16T08:19:47;7.10;;;6.50;;
17850;SDS011;9051;51.548;14.348;2022-10-16T08:22:21;7.00;;;6.50;;
17850;SDS011;9051;51.548;14.348;2022-10-16T08:24:53;7.40;;;6.70;;
17850;SDS011;9051;51.548;14.348;2022-10-16T08:27:30;7.20;;;6.53;;
17850;SDS011;9051;51.548;14.348;2022-10-16T08:30:02;7.03;;;6.33;;
17850;SDS011;9051;51.548;14.348;2022-10-16T08:32:35;6.60;;;6.10;;
17850;SDS011;9051;51.548;14.348;2022-10-16T08:35:08;6.73;;;6.13;;
17850;SDS011;9051;51.548;14.348;2022-10-16T08:37:42;7.37;;;6.77;;
17850;SDS011;9051;51.548;14.348;2022-10-16T08:40:16;7.13;;;6.43;;
17850;SDS011;9051;51.548;14.348;2022-10-16T08:43:05;7.13;;;6.43;;
17850;SDS011;9051;51.548;14.348;2022-10-16T08:45:59;6.00;;;5.50;;
17850;SDS011;9051;51.548;14.348;2022-10-16T08:48:50;6.13;;;5.53;;
17850;SDS011;9051;51.548;14.348;2022-10-16T08:51:24;6.28;;;5.63;;
17850;SDS011;9051;51.548;14.348;2022-10-16T08:54:01;6.03;;;5.00;;
17850;SDS011;9051;51.548;14.348;2022-10-16T08:56:35;5.40;;;4.80;;
17850;SDS011;9051;51.548;14.348;2022-10-16T08:59:09;5.68;;;4.50;;
17850;SDS011;9051;51.548;14.348;2022-10-16T09:01:44;5.47;;;4.93;;
17850;SDS011;9051;51.548;14.348;2022-10-16T09:04:39;4.45;;;4.15;;
17850;SDS011;9051;51.548;14.348;2022-10-16T09:07:20;4.20;;;3.90;;
17850;SDS011;9051;51.548;14.348;2022-10-16T09:10:07;4.27;;;3.97;;
17850;SDS011;9051;51.548;14.348;2022-10-16T09:12:51;4.10;;;3.80;;
17850;SDS011;9051;51.548;14.348;2022-10-16T09:15:29;3.85;;;3.55;;
17850;SDS011;9051;51.548;14.348;2022-10-16T09:18:09;3.33;;;3.03;;
17850;SDS011;9051;51.548;14.348;2022-10-16T09:20:51;3.25;;;2.80;;
17850;SDS011;9051;51.548;14.348;2022-10-16T09:23:28;2.70;;;2.50;;
17850;SDS011;9051;51.548;14.348;2022-10-16T09:26:03;3.40;;;2.97;;
17850;SDS011;9051;51.548;14.348;2022-10-16T09:28:37;2.73;;;2.53;;
17850;SDS011;9051;51.548;14.348;2022-10-16T09:31:12;2.43;;;2.30;;
17850;SDS011;9051;51.548;14.348;2022-10-16T09:33:48;2.13;;;2.03;;
17850;SDS011;9051;51.548;14.348;2022-10-16T09:36:25;1.98;;;1.85;;
17850;SDS011;9051;51.548;14.348;2022-10-16T09:39:04;2.13;;;2.03;;
17850;SDS011;9051;51.548;14.348;2022-10-16T09:41:39;1.80;;;1.70;;
17850;SDS011;9051;51.548;14.348;2022-10-16T09:44:17;1.67;;;1.55;;
17850;SDS011;9051;51.548;14.348;2022-10-16T09:47:00;1.55;;;1.45;;
17850;SDS011;9051;51.548;14.348;2022-10-16T09:49:33;2.03;;;1.75;;
17850;SDS011;9051;51.548;14.348;2022-10-16T09:52:11;1.63;;;1.52;;
17850;SDS011;9051;51.548;14.348;2022-10-16T09:54:51;1.70;;;1.60;;
17850;SDS011;9051;51.548;14.348;2022-10-16T09:57:26;2.10;;;2.00;;
17850;SDS011;9051;51.548;14.348;2022-10-16T10:00:00;1.73;;;1.63;;
17850;SDS011;9051;51.548;14.348;2022-10-16T10:02:39;1.60;;;1.50;;
17850;SDS011;9051;51.548;14.348;2022-10-16T10:05:18;1.60;;;1.50;;
17850;SDS011;9051;51.548;14.348;2022-10-16T10:07:54;1.45;;;1.35;;
17850;SDS011;9051;51.548;14.348;2022-10-16T10:10:28;1.52;;;1.42;;
17850;SDS011;9051;51.548;14.348;2022-10-16T10:13:03;1.67;;;1.50;;
17850;SDS011;9051;51.548;14.348;2022-10-16T10:15:35;1.83;;;1.30;;
17850;SDS011;9051;51.548;14.348;2022-10-16T10:18:16;1.77;;;1.30;;
17850;SDS011;9051;51.548;14.348;2022-10-16T10:20:58;1.65;;;1.40;;
17850;SDS011;9051;51.548;14.348;2022-10-16T10:23:30;2.40;;;1.25;;
17850;SDS011;9051;51.548;14.348;2022-10-16T10:26:03;1.60;;;1.25;;
17850;SDS011;9051;51.548;14.348;2022-10-16T10:28:49;1.27;;;1.27;;
17850;SDS011;9051;51.548;14.348;2022-10-16T10:31:32;1.42;;;1.33;;
17850;SDS011;9051;51.548;14.348;2022-10-16T10:34:13;1.58;;;1.40;;
17850;SDS011;9051;51.548;14.348;2022-10-16T10:36:58;1.50;;;1.40;;
17850;SDS011;9051;51.548;14.348;2022-10-16T10:39:37;1.60;;;1.30;;
17850;SDS011;9051;51.548;14.348;2022-10-16T10:42:17;1.10;;;1.00;;
17850;SDS011;9051;51.548;14.348;2022-10-16T10:47:59;2.10;;;1.30;;
17850;SDS011;9051;51.548;14.348;2022-10-16T10:50:48;1.25;;;1.20;;
17850;SDS011;9051;51.548;14.348;2022-10-16T10:53:25;1.40;;;1.20;;
17850;SDS011;9051;51.548;14.348;2022-10-16T10:56:11;1.90;;;1.40;;
17850;SDS011;9051;51.548;14.348;2022-10-16T10:58:56;1.50;;;1.40;;
17850;SDS011;9051;51.548;14.348;2022-10-16T11:01:44;1.98;;;1.77;;
17850;SDS011;9051;51.548;14.348;2022-10-16T11:04:34;1.50;;;1.40;;
17850;SDS011;9051;51.548;14.348;2022-10-16T11:07:28;1.50;;;1.40;;
17850;SDS011;9051;51.548;14.348;2022-10-16T11:10:05;2.88;;;1.70;;
17850;SDS011;9051;51.548;14.348;2022-10-16T11:12:44;2.83;;;1.67;;
17850;SDS011;9051;51.548;14.348;2022-10-16T11:15:19;2.45;;;1.75;;
17850;SDS011;9051;51.548;14.348;2022-10-16T11:17:59;1.73;;;1.30;;
17850;SDS011;9051;51.548;14.348;2022-10-16T11:20:37;2.83;;;1.50;;
17850;SDS011;9051;51.548;14.348;2022-10-16T11:23:16;1.42;;;1.33;;
17850;SDS011;9051;51.548;14.348;2022-10-16T11:25:53;2.63;;;1.45;;
17850;SDS011;9051;51.548;14.348;2022-10-16T11:28:32;1.40;;;1.30;;
17850;SDS011;9051;51.548;14.348;2022-10-16T11:31:10;1.48;;;1.38;;
17850;SDS011;9051;51.548;14.348;2022-10-16T11:33:49;1.42;;;1.33;;
17850;SDS011;9051;51.548;14.348;2022-10-16T11:36:27;1.38;;;1.17;;
17850;SDS011;9051;51.548;14.348;2022-10-16T11:39:10;1.83;;;1.30;;
17850;SDS011;9051;51.548;14.348;2022-10-16T11:41:51;1.40;;;1.13;;
17850;SDS011;9051;51.548;14.348;2022-10-16T11:44:34;1.42;;;1.05;;
17850;SDS011;9051;51.548;14.348;2022-10-16T11:47:24;1.13;;;1.10;;
17850;SDS011;9051;51.548;14.348;2022-10-16T11:50:03;1.40;;;1.30;;
17850;SDS011;9051;51.548;14.348;2022-10-16T11:52:44;2.20;;;1.20;;
17850;SDS011;9051;51.548;14.348;2022-10-16T11:55:23;2.25;;;1.20;;
17850;SDS011;9051;51.548;14.348;2022-10-16T11:58:02;1.10;;;1.00;;
17850;SDS011;9051;51.548;14.348;2022-10-16T12:00:38;1.15;;;1.05;;
17850;SDS011;9051;51.548;14.348;2022-10-16T12:03:17;1.00;;;0.88;;
17850;SDS011;9051;51.548;14.348;2022-10-16T12:06:10;1.17;;;1.10;;
17850;SDS011;9051;51.548;14.348;2022-10-16T12:08:54;0.95;;;0.93;;
17850;SDS011;9051;51.548;14.348;2022-10-16T12:11:36;0.98;;;0.88;;
17850;SDS011;9051;51.548;14.348;2022-10-16T12:14:20;0.98;;;0.98;;
17850;SDS011;9051;51.548;14.348;2022-10-16T12:17:23;1.67;;;1.05;;
17850;SDS011;9051;51.548;14.348;2022-10-16T12:19:58;1.45;;;1.17;;
17850;SDS011;9051;51.548;14.348;2022-10-16T12:22:34;1.00;;;1.00;;
17850;SDS011;9051;51.548;14.348;2022-10-16T12:25:17;0.73;;;0.73;;
17850;SDS011;9051;51.548;14.348;2022-10-16T12:27:56;1.20;;;1.10;;
17850;SDS011;9051;51.548;14.348;2022-10-16T12:30:30;1.80;;;1.08;;
17850;SDS011;9051;51.548;14.348;2022-10-16T12:33:05;0.90;;;0.90;;
17850;SDS011;9051;51.548;14.348;2022-10-16T12:35:43;2.15;;;1.00;;
17850;SDS011;9051;51.548;14.348;2022-10-16T12:38:17;0.90;;;0.90;;
17850;SDS011;9051;51.548;14.348;2022-10-16T12:40:55;2.65;;;1.00;;
17850;SDS011;9051;51.548;14.348;2022-10-16T12:43:37;0.90;;;0.90;;
17850;SDS011;9051;51.548;14.348;2022-10-16T12:46:22;1.20;;;1.10;;
17850;SDS011;9051;51.548;14.348;2022-10-16T12:49:06;2.08;;;1.10;;
17850;SDS011;9051;51.548;14.348;2022-10-16T12:51:54;1.10;;;1.00;;
17850;SDS011;9051;51.548;14.348;2022-10-16T12:54:29;0.88;;;0.88;;
17850;SDS011;9051;51.548;14.348;2022-10-16T12:57:13;1.00;;;1.00;;
17850;SDS011;9051;51.548;14.348;2022-10-16T13:00:10;1.33;;;1.05;;
17850;SDS011;9051;51.548;14.348;2022-10-16T13:03:02;1.42;;;0.95;;
17850;SDS011;9051;51.548;14.348;2022-10-16T13:05:57;1.30;;;1.20;;
17850;SDS011;9051;51.548;14.348;2022-10-16T13:08:40;1.42;;;1.10;;
17850;SDS011;9051;51.548;14.348;2022-10-16T13:11:36;1.13;;;1.10;;
17850;SDS011;9051;51.548;14.348;2022-10-16T13:14:24;2.05;;;1.33;;
17850;SDS011;9051;51.548;14.348;2022-10-16T13:17:10;1.23;;;1.00;;
17850;SDS011;9051;51.548;14.348;2022-10-16T13:19:52;1.00;;;0.90;;
17850;SDS011;9051;51.548;14.348;2022-10-16T13:22:35;1.13;;;1.00;;
17850;SDS011;9051;51.548;14.348;2022-10-16T13:25:18;1.05;;;1.02;;
17850;SDS011;9051;51.548;14.348;2022-10-16T13:27:59;1.00;;;1.00;;
17850;SDS011;9051;51.548;14.348;2022-10-16T13:30:33;1.00;;;1.00;;
17850;SDS011;9051;51.548;14.348;2022-10-16T13:33:13;1.30;;;1.20;;
17850;SDS011;9051;51.548;14.348;2022-10-16T13:35:48;1.42;;;1.33;;
17850;SDS011;9051;51.548;14.348;2022-10-16T13:38:22;1.80;;;1.20;;
17850;SDS011;9051;51.548;14.348;2022-10-16T13:40:57;1.70;;;1.30;;
17850;SDS011;9051;51.548;14.348;2022-10-16T13:43:33;1.40;;;1.10;;
17850;SDS011;9051;51.548;14.348;2022-10-16T13:46:11;1.23;;;1.15;;
17850;SDS011;9051;51.548;14.348;2022-10-16T13:48:55;1.52;;;1.20;;
17850;SDS011;9051;51.548;14.348;2022-10-16T13:51:28;1.38;;;1.10;;
17850;SDS011;9051;51.548;14.348;2022-10-16T13:54:01;1.00;;;1.00;;
17850;SDS011;9051;51.548;14.348;2022-10-16T13:56:33;1.20;;;1.10;;
17850;SDS011;9051;51.548;14.348;2022-10-16T13:59:22;1.30;;;1.20;;
17850;SDS011;9051;51.548;14.348;2022-10-16T14:01:56;1.45;;;1.35;;
17850;SDS011;9051;51.548;14.348;2022-10-16T14:04:30;1.42;;;1.33;;
17850;SDS011;9051;51.548;14.348;2022-10-16T14:07:04;2.67;;;1.17;;
17850;SDS011;9051;51.548;14.348;2022-10-16T14:09:36;1.00;;;1.00;;
17850;SDS011;9051;51.548;14.348;2022-10-16T14:12:10;1.40;;;1.30;;
17850;SDS011;9051;51.548;14.348;2022-10-16T14:14:45;1.40;;;1.30;;
17850;SDS011;9051;51.548;14.348;2022-10-16T14:17:20;1.33;;;1.00;;
17850;SDS011;9051;51.548;14.348;2022-10-16T14:19:56;1.23;;;1.20;;
17850;SDS011;9051;51.548;14.348;2022-10-16T14:22:30;2.55;;;1.10;;
17850;SDS011;9051;51.548;14.348;2022-10-16T14:25:15;1.85;;;1.10;;
17850;SDS011;9051;51.548;14.348;2022-10-16T14:27:57;1.55;;;1.25;;
17850;SDS011;9051;51.548;14.348;2022-10-16T14:30:33;1.10;;;1.00;;
17850;SDS011;9051;51.548;14.348;2022-10-16T14:33:19;1.20;;;1.20;;
17850;SDS011;9051;51.548;14.348;2022-10-16T14:35:59;1.20;;;1.10;;
17850;SDS011;9051;51.548;14.348;2022-10-16T14:38:33;1.30;;;1.20;;
17850;SDS011;9051;51.548;14.348;2022-10-16T14:41:06;1.95;;;1.48;;
17850;SDS011;9051;51.548;14.348;2022-10-16T14:43:39;2.25;;;1.33;;
17850;SDS011;9051;51.548;14.348;2022-10-16T14:46:14;1.35;;;1.33;;
17850;SDS011;9051;51.548;14.348;2022-10-16T14:48:48;1.48;;;1.40;;
17850;SDS011;9051;51.548;14.348;2022-10-16T14:51:22;1.75;;;1.33;;
17850;SDS011;9051;51.548;14.348;2022-10-16T14:53:54;1.45;;;1.30;;
17850;SDS011;9051;51.548;14.348;2022-10-16T14:56:27;1.63;;;1.40;;
17850;SDS011;9051;51.548;14.348;2022-10-16T14:59:02;1.15;;;1.05;;
17850;SDS011;9051;51.548;14.348;2022-10-16T15:01:36;1.35;;;1.25;;
17850;SDS011;9051;51.548;14.348;2022-10-16T15:04:08;2.85;;;1.40;;
17850;SDS011;9051;51.548;14.348;2022-10-16T15:06:42;2.97;;;1.25;;
17850;SDS011;9051;51.548;14.348;2022-10-16T15:09:14;1.30;;;1.20;;
17850;SDS011;9051;51.548;14.348;2022-10-16T15:11:46;2.35;;;1.30;;
17850;SDS011;9051;51.548;14.348;2022-10-16T15:14:18;1.98;;;1.30;;
17850;SDS011;9051;51.548;14.348;2022-10-16T15:16:52;1.50;;;1.40;;
17850;SDS011;9051;51.548;14.348;2022-10-16T15:19:25;1.52;;;1.30;;
17850;SDS011;9051;51.548;14.348;2022-10-16T15:21:57;1.15;;;1.13;;
17850;SDS011;9051;51.548;14.348;2022-10-16T15:24:29;2.17;;;1.17;;
17850;SDS011;9051;51.548;14.348;2022-10-16T15:27:01;1.40;;;1.30;;
17850;SDS011;9051;51.548;14.348;2022-10-16T15:29:33;1.80;;;1.30;;
17850;SDS011;9051;51.548;14.348;2022-10-16T15:32:08;1.30;;;1.20;;
17850;SDS011;9051;51.548;14.348;2022-10-16T15:34:41;2.40;;;1.33;;